Pope, Illinois
Current Conditions -  °F | °C
As of 10:35 AM on Saturday 25 Oct 2014 (Local Time) from KSLO Reporting Station
Clear Clear  
Wind Chill: 69°   Ceiling: Unl
Heat Index: 69°   Visibility: 7mi
Dew Point: 62°   Wind: 3mph
Humidity: 79%   Direction: 300°WNW
Pressure: 30.03"   Gusts: NA
Location:  38.7613°N, 89.0868°W
Report Text: KSLO 251535Z AUTO 30003KT 7SM CLR 21/17 A3003 RMK AO2 T02050167
Loading
Personal Weather Stations






























Interactive Weather Map
Tropical Storm Tracking
New forecast layout! Learn more

10-Day Weather Forecast

Advertisements
Track Severe Weather on mobile